createdAt,value
2018-09-27T00:00:54.959Z,15.57
2018-09-27T00:02:04.898Z,15.55
2018-09-27T00:03:14.841Z,15.55
2018-09-27T00:04:24.773Z,15.6
2018-09-27T00:05:34.725Z,15.6
2018-09-27T00:06:44.639Z,15.63
2018-09-27T00:07:54.574Z,15.51
2018-09-27T00:09:04.272Z,15.62
2018-09-27T00:10:14.206Z,15.54
2018-09-27T00:11:24.134Z,15.55
2018-09-27T00:12:34.079Z,15.5
2018-09-27T00:13:43.998Z,15.51
2018-09-27T00:14:53.944Z,15.57
2018-09-27T00:16:03.895Z,15.52
2018-09-27T00:17:13.585Z,15.43
2018-09-27T00:18:23.271Z,15.52
2018-09-27T00:19:33.399Z,15.5
2018-09-27T00:20:42.892Z,15.37
2018-09-27T00:21:52.320Z,15.33
2018-09-27T00:23:02.308Z,15.33
2018-09-27T00:24:11.987Z,15.35
2018-09-27T00:25:21.915Z,15.32
2018-09-27T00:26:31.861Z,15.3
2018-09-27T00:27:41.799Z,15.23
2018-09-27T00:28:51.484Z,15.27
2018-09-27T00:30:01.429Z,15.19
2018-09-27T00:31:11.374Z,15.29
2018-09-27T00:32:21.373Z,15.23
2018-09-27T00:33:30.786Z,15.3
2018-09-27T00:34:40.729Z,15.18
2018-09-27T00:35:50.666Z,15.12
2018-09-27T00:37:00.339Z,15.14
2018-09-27T00:38:10.286Z,15.11
2018-09-27T00:39:19.971Z,15.11
2018-09-27T00:40:29.910Z,15.18
2018-09-27T00:41:39.334Z,15.19
2018-09-27T00:42:49.285Z,15.18
2018-09-27T00:43:58.973Z,15.15
2018-09-27T00:45:08.914Z,15.15
2018-09-27T00:46:18.598Z,15.12
2018-09-27T00:47:28.596Z,15.15
2018-09-27T00:48:38.537Z,15.07
2018-09-27T00:49:48.482Z,15.11
2018-09-27T00:50:58.414Z,15.08
2018-09-27T00:52:08.101Z,14.97
2018-09-27T00:53:18.041Z,15.08
2018-09-27T00:54:27.987Z,15
2018-09-27T00:55:37.923Z,15.04
2018-09-27T00:56:47.867Z,14.94
2018-09-27T00:57:57.547Z,14.97
2018-09-27T00:59:07.229Z,14.93
2018-09-27T01:00:16.908Z,14.94
2018-09-27T01:01:26.846Z,14.93
2018-09-27T01:02:36.783Z,14.93
2018-09-27T01:03:46.476Z,14.94
2018-09-27T01:04:56.403Z,14.87
2018-09-27T01:06:06.097Z,14.9
2018-09-27T01:07:15.781Z,14.92
2018-09-27T01:08:25.734Z,14.87
2018-09-27T01:09:35.415Z,14.9
2018-09-27T01:10:45.369Z,14.89
2018-09-27T01:11:55.321Z,14.92
2018-09-27T01:13:05.271Z,14.86
2018-09-27T01:14:15.267Z,14.93
2018-09-27T01:15:25.208Z,14.9
2018-09-27T01:16:34.893Z,14.82
2018-09-27T01:17:44.571Z,14.87
2018-09-27T01:18:54.508Z,14.86
2018-09-27T01:20:04.449Z,14.7
2018-09-27T01:21:13.888Z,14.78
2018-09-27T01:22:23.313Z,14.81
2018-09-27T01:23:33.258Z,14.85
2018-09-27T01:24:43.191Z,14.81
2018-09-27T01:25:53.124Z,14.85
2018-09-27T01:27:03.068Z,14.81
2018-09-27T01:28:13.049Z,14.78
2018-09-27T01:29:23.021Z,14.78
2018-09-27T01:30:32.713Z,14.82
2018-09-27T01:31:42.659Z,14.81
2018-09-27T01:32:52.616Z,14.77
2018-09-27T01:34:02.570Z,14.78
2018-09-27T01:35:12.268Z,14.86
2018-09-27T01:36:22.209Z,14.81
2018-09-27T01:37:31.904Z,14.79
2018-09-27T01:38:41.343Z,14.82
2018-09-27T01:39:51.304Z,14.86
2018-09-27T01:41:00.729Z,14.77
2018-09-27T01:42:10.661Z,14.92
2018-09-27T01:43:20.615Z,14.85
2018-09-27T01:44:30.542Z,14.86
2018-09-27T01:45:40.474Z,14.81
2018-09-27T01:46:50.407Z,14.73
2018-09-27T01:48:00.101Z,14.89
2018-09-27T01:49:10.027Z,14.9
2018-09-27T01:50:19.718Z,14.87
2018-09-27T01:51:29.677Z,14.82
2018-09-27T01:52:39.673Z,14.86
2018-09-27T01:53:49.624Z,14.87
2018-09-27T01:54:59.039Z,14.86
2018-09-27T01:56:08.968Z,14.89
2018-09-27T01:57:18.913Z,14.92
2018-09-27T01:58:28.852Z,14.89
2018-09-27T01:59:38.785Z,14.85
2018-09-27T02:00:48.474Z,14.9
2018-09-27T02:01:58.422Z,14.85
2018-09-27T02:03:08.363Z,14.87
2018-09-27T02:04:18.320Z,14.86
2018-09-27T02:05:27.995Z,14.87
2018-09-27T02:06:37.961Z,14.86
2018-09-27T02:07:47.903Z,14.85
2018-09-27T02:08:57.850Z,14.9
2018-09-27T02:10:07.798Z,14.85
2018-09-27T02:11:17.742Z,14.85
2018-09-27T02:12:27.440Z,14.86
2018-09-27T02:13:37.136Z,14.89
2018-09-27T02:14:47.102Z,14.92
2018-09-27T02:15:56.538Z,14.92
2018-09-27T02:17:06.488Z,14.87
2018-09-27T02:18:16.423Z,14.93
2018-09-27T02:19:26.347Z,14.9
2018-09-27T02:20:36.026Z,14.87
2018-09-27T02:21:45.469Z,14.87
2018-09-27T02:22:55.405Z,14.89
2018-09-27T02:24:05.351Z,14.94
2018-09-27T02:25:15.299Z,14.94
2018-09-27T02:26:25.234Z,14.96
2018-09-27T02:27:34.911Z,14.97
2018-09-27T02:28:44.859Z,15
2018-09-27T02:29:54.811Z,15
2018-09-27T02:31:04.745Z,14.89
2018-09-27T02:32:14.708Z,14.93
2018-09-27T02:33:24.640Z,15
2018-09-27T02:34:34.583Z,14.99
2018-09-27T02:35:44.583Z,15.04
2018-09-27T02:36:54.274Z,14.99
2018-09-27T02:38:04.234Z,14.99
2018-09-27T02:39:14.180Z,14.99
2018-09-27T02:40:24.152Z,14.99
2018-09-27T02:41:34.116Z,15.02
2018-09-27T02:42:44.053Z,15.07
2018-09-27T02:43:54.010Z,14.94
2018-09-27T02:45:03.972Z,14.96
2018-09-27T02:46:13.648Z,14.96
2018-09-27T02:47:23.604Z,14.97
2018-09-27T02:48:33.561Z,14.94
2018-09-27T02:49:43.267Z,15.05
2018-09-27T02:50:53.215Z,14.99
2018-09-27T02:52:03.160Z,14.97
2018-09-27T02:53:12.853Z,14.96
2018-09-27T02:54:22.794Z,14.89
2018-09-27T02:55:32.756Z,14.9
2018-09-27T02:56:42.726Z,14.92
2018-09-27T02:57:52.435Z,14.9
2018-09-27T02:59:01.875Z,14.82
2018-09-27T03:00:11.309Z,14.85
2018-09-27T03:01:21.039Z,14.85
2018-09-27T03:02:30.477Z,14.96
2018-09-27T03:03:40.609Z,14.94
2018-09-27T03:04:50.559Z,14.89
2018-09-27T03:06:00.261Z,14.94
2018-09-27T03:07:09.960Z,15.02
2018-09-27T03:08:19.905Z,14.85
2018-09-27T03:09:29.862Z,15.05
2018-09-27T03:10:39.290Z,14.96
2018-09-27T03:11:48.983Z,14.93
2018-09-27T03:12:58.939Z,14.99
2018-09-27T03:14:08.893Z,14.93
2018-09-27T03:15:18.844Z,14.97
2018-09-27T03:16:28.787Z,14.92
2018-09-27T03:17:38.503Z,15.05
2018-09-27T03:18:48.670Z,15
2018-09-27T03:19:58.607Z,14.87
2018-09-27T03:21:08.908Z,14.87
2018-09-27T03:22:18.599Z,14.94
2018-09-27T03:23:28.572Z,14.92
2018-09-27T03:24:38.524Z,14.87
2018-09-27T03:25:48.204Z,14.85
2018-09-27T03:26:58.196Z,14.85
2018-09-27T03:28:08.153Z,14.85
2018-09-27T03:29:18.122Z,14.9
2018-09-27T03:30:28.069Z,14.87
2018-09-27T03:31:38.020Z,14.87
2018-09-27T03:32:47.706Z,14.9
2018-09-27T03:33:57.649Z,14.82
2018-09-27T03:35:07.345Z,14.85
2018-09-27T03:36:17.043Z,14.79
2018-09-27T03:37:26.994Z,14.73
2018-09-27T03:38:36.672Z,14.82
2018-09-27T03:39:46.889Z,14.77
2018-09-27T03:40:57.117Z,14.81
2018-09-27T03:42:07.079Z,14.82
2018-09-27T03:43:16.763Z,14.79
2018-09-27T03:44:26.700Z,14.78
2018-09-27T03:45:36.403Z,14.81
2018-09-27T03:46:46.351Z,14.82
2018-09-27T03:47:56.307Z,14.78
2018-09-27T03:49:06.257Z,14.78
2018-09-27T03:50:16.205Z,14.78
2018-09-27T03:51:26.151Z,14.77
2018-09-27T03:52:36.108Z,14.71
2018-09-27T03:53:45.808Z,14.68
2018-09-27T03:54:55.758Z,14.82
2018-09-27T03:56:05.720Z,14.81
2018-09-27T03:57:15.662Z,14.78
2018-09-27T03:58:25.344Z,14.79
2018-09-27T03:59:35.040Z,14.82
2018-09-27T04:00:45.005Z,14.86
2018-09-27T04:01:54.961Z,14.82
2018-09-27T04:03:04.690Z,14.85
2018-09-27T04:04:14.400Z,14.77
2018-09-27T04:05:24.344Z,14.87
2018-09-27T04:06:34.296Z,14.74
2018-09-27T04:07:44.245Z,14.78
2018-09-27T04:08:53.996Z,14.74
2018-09-27T04:10:03.682Z,14.82
2018-09-27T04:11:13.374Z,14.82
2018-09-27T04:12:23.320Z,14.9
2018-09-27T04:13:33.298Z,14.9
2018-09-27T04:14:42.995Z,14.89
2018-09-27T04:15:53.182Z,14.86
2018-09-27T04:17:03.360Z,14.9
2018-09-27T04:18:13.326Z,14.89
2018-09-27T04:19:23.294Z,14.92
2018-09-27T04:20:33.239Z,14.93
2018-09-27T04:21:43.380Z,14.86
2018-09-27T04:22:53.239Z,14.82
2018-09-27T04:24:03.141Z,14.94
2018-09-27T04:25:13.068Z,14.87
2018-09-27T04:26:22.495Z,14.9
2018-09-27T04:27:32.445Z,14.87
2018-09-27T04:28:42.134Z,14.87
2018-09-27T04:29:51.826Z,14.87
2018-09-27T04:31:01.259Z,14.74
2018-09-27T04:32:11.213Z,14.74
2018-09-27T04:33:21.157Z,14.71
2018-09-27T04:34:30.865Z,14.77
2018-09-27T04:35:40.044Z,14.77
2018-09-27T04:36:49.982Z,14.63
2018-09-27T04:37:59.924Z,14.67
2018-09-27T04:39:09.857Z,14.63
2018-09-27T04:40:19.552Z,14.63
2018-09-27T04:41:29.247Z,14.7
2018-09-27T04:42:39.236Z,14.77
2018-09-27T04:43:49.184Z,14.73
2018-09-27T04:44:59.131Z,14.82
2018-09-27T04:46:08.817Z,14.78
2018-09-27T04:47:18.509Z,14.79
2018-09-27T04:48:28.470Z,14.79
2018-09-27T04:49:37.900Z,14.71
2018-09-27T04:50:47.598Z,14.77
2018-09-27T04:51:57.620Z,14.82
2018-09-27T04:53:07.177Z,14.86
2018-09-27T04:54:17.133Z,14.85
2018-09-27T04:55:27.103Z,14.78
2018-09-27T04:56:37.035Z,14.9
2018-09-27T04:57:46.725Z,14.78
2018-09-27T04:58:56.462Z,14.81
2018-09-27T05:00:06.435Z,14.82
2018-09-27T05:01:16.860Z,14.89
2018-09-27T05:02:26.809Z,14.78
2018-09-27T05:03:36.512Z,14.85
2018-09-27T05:04:46.672Z,14.79
2018-09-27T05:05:56.608Z,14.86
2018-09-27T05:07:06.308Z,14.79
2018-09-27T05:08:16.245Z,14.87
2018-09-27T05:09:26.232Z,14.68
2018-09-27T05:10:36.292Z,14.79
2018-09-27T05:11:46.053Z,14.86
2018-09-27T05:12:56.006Z,14.78
2018-09-27T05:14:05.984Z,14.79
2018-09-27T05:15:15.676Z,14.77
2018-09-27T05:16:25.460Z,14.74
2018-09-27T05:17:35.151Z,14.82
2018-09-27T05:18:45.091Z,14.86
2018-09-27T05:19:55.043Z,14.82
2018-09-27T05:21:04.999Z,14.74
2018-09-27T05:22:14.949Z,14.77
2018-09-27T05:23:24.904Z,14.89
2018-09-27T05:24:34.861Z,14.82
2018-09-27T05:25:44.579Z,14.82
2018-09-27T05:26:54.295Z,14.81
2018-09-27T05:28:04.001Z,14.81
2018-09-27T05:29:13.971Z,14.89
2018-09-27T05:30:23.943Z,14.87
2018-09-27T05:31:33.916Z,14.85
2018-09-27T05:32:43.619Z,14.85
2018-09-27T05:33:53.582Z,14.85
2018-09-27T05:35:03.040Z,14.9
2018-09-27T05:36:12.969Z,14.9
2018-09-27T05:37:22.667Z,14.92
2018-09-27T05:38:32.625Z,14.87
2018-09-27T05:39:42.941Z,14.89
2018-09-27T05:40:52.567Z,14.92
2018-09-27T05:42:02.519Z,14.97
2018-09-27T05:43:12.465Z,14.93
2018-09-27T05:44:22.440Z,14.94
2018-09-27T05:45:32.574Z,15.02
2018-09-27T05:46:42.773Z,14.99
2018-09-27T05:47:52.717Z,14.99
2018-09-27T05:49:02.718Z,15.02
2018-09-27T05:50:12.691Z,14.99
2018-09-27T05:51:22.148Z,15.02
2018-09-27T05:52:32.216Z,14.93
2018-09-27T05:53:42.388Z,15.04
2018-09-27T05:54:52.346Z,15.05
2018-09-27T05:56:02.667Z,15.02
2018-09-27T05:57:12.425Z,15.02
2018-09-27T05:58:22.132Z,15.1
2018-09-27T05:59:32.088Z,15.05
2018-09-27T06:00:42.045Z,15.14
2018-09-27T06:01:51.788Z,15.11
2018-09-27T06:03:01.627Z,15.17
2018-09-27T06:04:11.594Z,15.1
2018-09-27T06:05:21.547Z,15.17
2018-09-27T06:06:31.506Z,15.19
2018-09-27T06:07:41.210Z,15.15
2018-09-27T06:08:51.163Z,15.17
2018-09-27T06:10:01.116Z,15.14
2018-09-27T06:11:10.832Z,15.19
2018-09-27T06:12:20.863Z,15.18
2018-09-27T06:13:30.853Z,15.23
2018-09-27T06:14:40.801Z,15.19
2018-09-27T06:15:50.751Z,15.25
2018-09-27T06:17:00.707Z,15.25
2018-09-27T06:18:10.659Z,15.15
2018-09-27T06:19:20.573Z,15.18
2018-09-27T06:20:30.137Z,15.33
2018-09-27T06:21:40.029Z,15.19
2018-09-27T06:22:50.238Z,15.32
2018-09-27T06:24:00.202Z,15.26
2018-09-27T06:25:10.159Z,15.35
2018-09-27T06:26:20.123Z,15.37
2018-09-27T06:27:30.202Z,15.35
2018-09-27T06:28:40.000Z,15.43
2018-09-27T06:29:49.958Z,15.47
2018-09-27T06:30:59.913Z,15.48
2018-09-27T06:32:09.610Z,15.48
2018-09-27T06:33:19.084Z,15.51
2018-09-27T06:34:29.055Z,15.45
2018-09-27T06:35:39.025Z,15.43
2018-09-27T06:36:48.473Z,15.47
2018-09-27T06:37:58.203Z,15.5
2018-09-27T06:39:08.199Z,15.52
2018-09-27T06:40:17.921Z,15.55
2018-09-27T06:41:27.808Z,15.57
2018-09-27T06:42:37.875Z,15.47
2018-09-27T06:43:47.875Z,15.5
2018-09-27T06:44:57.850Z,15.52
2018-09-27T06:46:07.841Z,15.5
2018-09-27T06:47:17.809Z,15.55
2018-09-27T06:48:28.243Z,15.5
2018-09-27T06:49:38.285Z,15.51
2018-09-27T06:50:48.431Z,15.59
2018-09-27T06:51:58.392Z,15.57
2018-09-27T06:53:08.441Z,15.65
2018-09-27T06:54:18.162Z,15.65
2018-09-27T06:55:28.939Z,15.67
2018-09-27T06:56:39.493Z,15.6
2018-09-27T06:57:49.801Z,15.65
2018-09-27T06:58:59.564Z,15.66
2018-09-27T07:00:09.034Z,15.62
2018-09-27T07:01:18.741Z,15.72
2018-09-27T07:02:28.473Z,15.63
2018-09-27T07:03:38.535Z,15.66
2018-09-27T07:04:48.025Z,15.7
2018-09-27T07:05:57.770Z,15.7
2018-09-27T07:07:07.829Z,15.76
2018-09-27T07:08:17.312Z,15.83
2018-09-27T07:09:27.341Z,15.9
2018-09-27T07:10:37.049Z,15.96
2018-09-27T07:11:47.123Z,15.83
2018-09-27T07:12:57.634Z,15.9
2018-09-27T07:14:07.653Z,16.02
2018-09-27T07:15:17.372Z,16.03
2018-09-27T07:16:27.126Z,16.09
2018-09-27T07:17:37.090Z,16.12
2018-09-27T07:18:47.289Z,16.12
2018-09-27T07:19:57.261Z,16.25
2018-09-27T07:21:06.724Z,16.22
2018-09-27T07:22:16.680Z,16.24
2018-09-27T07:23:26.363Z,16.25
2018-09-27T07:24:36.318Z,16.26
2018-09-27T07:25:46.268Z,16.25
2018-09-27T07:26:56.030Z,16.26
2018-09-27T07:28:06.193Z,16.28
2018-09-27T07:29:15.910Z,16.34
2018-09-27T07:30:25.608Z,16.34
2018-09-27T07:31:35.316Z,16.4
2018-09-27T07:32:45.503Z,16.41
2018-09-27T07:33:55.487Z,16.47
2018-09-27T07:35:05.189Z,16.32
2018-09-27T07:36:15.154Z,16.47
2018-09-27T07:37:25.159Z,16.43
2018-09-27T07:38:35.335Z,16.51
2018-09-27T07:39:44.776Z,16.54
2018-09-27T07:40:54.746Z,16.47
2018-09-27T07:42:04.776Z,16.47
2018-09-27T07:43:14.778Z,16.5
2018-09-27T07:44:24.771Z,16.68
2018-09-27T07:45:34.717Z,16.73
2018-09-27T07:46:44.423Z,16.79
2018-09-27T07:47:54.393Z,16.8
2018-09-27T07:49:04.352Z,16.82
2018-09-27T07:50:14.362Z,16.91
2018-09-27T07:51:24.332Z,16.87
2018-09-27T07:52:34.283Z,16.87
2018-09-27T07:53:44.262Z,16.89
2018-09-27T07:54:54.570Z,16.86
2018-09-27T07:56:04.894Z,16.86
2018-09-27T07:57:14.872Z,16.79
2018-09-27T07:58:24.858Z,16.97
2018-09-27T07:59:34.837Z,16.98
2018-09-27T08:00:44.901Z,17.04
2018-09-27T08:01:54.708Z,17.12
2018-09-27T08:03:04.586Z,17.04
2018-09-27T08:04:14.658Z,17.1
2018-09-27T08:05:24.934Z,17.16
2018-09-27T08:06:34.889Z,17.3
2018-09-27T08:07:44.851Z,17.32
2018-09-27T08:08:54.563Z,17.34
2018-09-27T08:10:04.529Z,17.35
2018-09-27T08:11:14.913Z,17.38
2018-09-27T08:12:24.930Z,17.42
2018-09-27T08:13:34.640Z,17.49
2018-09-27T08:14:44.886Z,17.44
2018-09-27T08:15:54.406Z,17.52
2018-09-27T08:17:04.526Z,17.54
2018-09-27T08:18:14.671Z,17.59
2018-09-27T08:19:24.460Z,17.71
2018-09-27T08:20:34.687Z,17.66
2018-09-27T08:21:45.186Z,17.69
2018-09-27T08:22:55.170Z,17.69
2018-09-27T08:24:05.369Z,17.72
2018-09-27T08:25:15.503Z,17.8
2018-09-27T08:26:24.995Z,17.86
2018-09-27T08:27:34.872Z,17.86
2018-09-27T08:28:44.604Z,17.82
2018-09-27T08:29:54.578Z,18.16
2018-09-27T08:31:04.755Z,18.41
2018-09-27T08:32:14.922Z,18.48
2018-09-27T08:33:24.896Z,18.31
2018-09-27T08:34:34.912Z,18.45
2018-09-27T08:35:44.918Z,18.45
2018-09-27T08:36:54.878Z,18.53
2018-09-27T08:38:04.852Z,18.64
2018-09-27T08:39:14.647Z,18.57
2018-09-27T08:40:24.632Z,18.45
2018-09-27T08:41:34.358Z,18.41
2018-09-27T08:42:44.297Z,18.45
2018-09-27T08:43:53.990Z,18.36
2018-09-27T08:45:05.000Z,18.53
2018-09-27T08:46:15.525Z,18.85
2018-09-27T08:47:25.534Z,19.09
2018-09-27T08:48:35.234Z,19.24
2018-09-27T08:49:44.680Z,19.52
2018-09-27T08:50:54.146Z,19.48
2018-09-27T08:52:04.135Z,19.42
2018-09-27T08:53:13.616Z,19.55
2018-09-27T08:54:23.312Z,19.49
2018-09-27T08:55:32.417Z,19.38
2018-09-27T08:56:42.743Z,19.3
2018-09-27T08:57:52.212Z,19.38
2018-09-27T08:59:02.178Z,19.44
2018-09-27T09:00:11.634Z,19.53
2018-09-27T09:01:21.324Z,19.42
2018-09-27T09:02:31.442Z,19.44
2018-09-27T09:03:41.887Z,19.48
2018-09-27T09:04:52.302Z,19.63
2018-09-27T09:06:01.757Z,19.67
2018-09-27T09:07:11.729Z,19.82
2018-09-27T09:08:21.464Z,19.85
2018-09-27T09:09:31.592Z,19.97
2018-09-27T09:10:41.850Z,20.11
2018-09-27T09:11:51.806Z,20.24
2018-09-27T09:13:01.570Z,20.56
2018-09-27T09:14:11.560Z,20.67
2018-09-27T09:15:21.766Z,20.7
2018-09-27T09:16:31.518Z,20.75
2018-09-27T09:17:41.247Z,20.66
2018-09-27T09:18:50.969Z,20.55
2018-09-27T09:20:00.973Z,20.7
2018-09-27T09:21:10.937Z,20.92
2018-09-27T09:22:20.665Z,21.08
2018-09-27T09:23:30.114Z,21.26
2018-09-27T09:24:40.005Z,21.47
2018-09-27T09:25:50.208Z,21.51
2018-09-27T09:27:00.261Z,21.51
2018-09-27T09:28:10.240Z,21.63
2018-09-27T09:29:20.359Z,21.78
2018-09-27T09:30:30.614Z,21.81
2018-09-27T09:31:40.578Z,21.83
2018-09-27T09:32:50.548Z,21.84
2018-09-27T09:34:00.513Z,21.85
2018-09-27T09:35:10.500Z,22.01
2018-09-27T09:36:20.465Z,22.16
2018-09-27T09:37:30.441Z,22.22
2018-09-27T09:38:40.401Z,22.14
2018-09-27T09:39:50.383Z,22.18
2018-09-27T09:41:00.351Z,22.04
2018-09-27T09:42:10.348Z,21.88
2018-09-27T09:43:19.837Z,21.78
2018-09-27T09:44:29.819Z,21.7
2018-09-27T09:45:39.804Z,21.83
2018-09-27T09:46:49.495Z,21.89
2018-09-27T09:47:59.208Z,21.99
2018-09-27T09:49:09.187Z,22
2018-09-27T09:50:19.157Z,22.03
2018-09-27T09:51:29.155Z,21.97
2018-09-27T09:52:39.141Z,22.22
2018-09-27T09:53:48.855Z,22.23
2018-09-27T09:54:58.550Z,21.97
2018-09-27T09:56:08.252Z,21.84
2018-09-27T09:57:18.219Z,21.84
2018-09-27T09:58:28.182Z,21.96
2018-09-27T09:59:37.877Z,22.01
2018-09-27T10:00:47.879Z,22.18
2018-09-27T10:01:57.852Z,22.08
2018-09-27T10:03:07.561Z,22.01
2018-09-27T10:04:17.274Z,21.97
2018-09-27T10:05:27.262Z,22.01
2018-09-27T10:06:37.244Z,22.22
2018-09-27T10:07:46.943Z,22.31
2018-09-27T10:08:56.813Z,22.47
2018-09-27T10:10:06.674Z,22.53
2018-09-27T10:11:16.433Z,22.65
2018-09-27T10:12:26.224Z,22.81
2018-09-27T10:13:35.953Z,23.1
2018-09-27T10:14:45.933Z,23.37
2018-09-27T10:15:55.889Z,23.4
2018-09-27T10:17:05.856Z,23.4
2018-09-27T10:18:15.837Z,23.56
2018-09-27T10:19:25.789Z,23.45
2018-09-27T10:20:35.237Z,23.52
2018-09-27T10:21:45.587Z,23.67
2018-09-27T10:22:55.634Z,23.95
2018-09-27T10:24:05.605Z,23.89
2018-09-27T10:25:15.612Z,23.47
2018-09-27T10:26:25.596Z,23.32
2018-09-27T10:27:35.420Z,23.02
2018-09-27T10:28:45.737Z,23.28
2018-09-27T10:29:55.467Z,23.34
2018-09-27T10:31:05.438Z,23.45
2018-09-27T10:32:15.135Z,23.28
2018-09-27T10:33:25.104Z,23.29
2018-09-27T10:34:34.598Z,23.26
2018-09-27T10:35:44.277Z,23.32
2018-09-27T10:36:53.717Z,23.47
2018-09-27T10:38:03.688Z,23.79
2018-09-27T10:39:13.393Z,24.04
2018-09-27T10:40:23.371Z,24.25
2018-09-27T10:41:33.331Z,24.51
2018-09-27T10:42:42.782Z,24.24
2018-09-27T10:43:52.497Z,24.31
2018-09-27T10:45:02.382Z,24.53
2018-09-27T10:46:12.201Z,24.69
2018-09-27T10:47:22.167Z,24.5
2018-09-27T10:48:31.894Z,24.66
2018-09-27T10:49:41.844Z,24.77
2018-09-27T10:50:51.560Z,25.12
2018-09-27T10:52:01.532Z,24.88
2018-09-27T10:53:11.243Z,24.88
2018-09-27T10:54:21.211Z,25.04
2018-09-27T10:55:30.928Z,25.01
2018-09-27T10:56:40.878Z,24.75
2018-09-27T10:57:50.852Z,24.48
2018-09-27T10:59:00.828Z,24.82
2018-09-27T11:00:10.818Z,24.89
2018-09-27T11:01:20.531Z,24.82
2018-09-27T11:02:30.503Z,24.5
2018-09-27T11:03:40.464Z,24.68
2018-09-27T11:04:50.437Z,24.77
2018-09-27T11:06:00.405Z,24.93
2018-09-27T11:07:10.378Z,25.16
2018-09-27T11:08:20.367Z,25
2018-09-27T11:09:30.089Z,24.84
2018-09-27T11:10:39.819Z,24.84
2018-09-27T11:11:49.621Z,24.81
2018-09-27T11:12:59.092Z,24.63
2018-09-27T11:14:09.067Z,24.29
2018-09-27T11:15:18.778Z,24.38
2018-09-27T11:16:28.950Z,24.46
2018-09-27T11:17:39.097Z,24.28
2018-09-27T11:18:49.078Z,24.58
2018-09-27T11:19:58.799Z,24.41
2018-09-27T11:21:08.774Z,24.32
2018-09-27T11:22:18.768Z,24.47
2018-09-27T11:23:28.572Z,24.56
2018-09-27T11:24:38.570Z,24.69
2018-09-27T11:25:48.440Z,24.79
2018-09-27T11:26:58.139Z,24.84
2018-09-27T11:28:08.120Z,24.77
2018-09-27T11:29:18.101Z,24.53
2018-09-27T11:30:28.077Z,24.77
2018-09-27T11:31:38.069Z,25.04
2018-09-27T11:32:48.039Z,25.18
2018-09-27T11:33:58.024Z,25.26
2018-09-27T11:35:08.005Z,25.31
2018-09-27T11:36:18.181Z,25.76
2018-09-27T11:37:28.082Z,25.76
2018-09-27T11:38:37.736Z,25.48
2018-09-27T11:39:47.679Z,25.34
2018-09-27T11:40:57.773Z,25.21
2018-09-27T11:42:06.964Z,24.88
2018-09-27T11:43:16.957Z,24.69
2018-09-27T11:44:26.941Z,24.66
2018-09-27T11:45:36.933Z,24.71
2018-09-27T11:46:46.914Z,24.85
2018-09-27T11:47:56.909Z,25
2018-09-27T11:49:07.101Z,25.14
2018-09-27T11:50:17.666Z,25.26
2018-09-27T11:51:27.700Z,25.3
2018-09-27T11:52:37.682Z,25.16
2018-09-27T11:53:47.654Z,24.84
2018-09-27T11:54:57.795Z,24.81
2018-09-27T11:56:08.163Z,25
2018-09-27T11:57:18.318Z,24.88
2018-09-27T11:58:28.282Z,24.85
2018-09-27T11:59:38.266Z,24.97
2018-09-27T12:00:48.379Z,24.93
2018-09-27T12:01:58.342Z,25.07
2018-09-27T12:03:08.326Z,25.59
2018-09-27T12:04:18.034Z,25.67
2018-09-27T12:05:28.008Z,25.14
2018-09-27T12:06:38.475Z,24.86
2018-09-27T12:07:48.731Z,24.93
2018-09-27T12:08:58.176Z,25.15
2018-09-27T12:10:07.631Z,24.89
2018-09-27T12:11:17.624Z,24.65
2018-09-27T12:12:27.590Z,24.36
2018-09-27T12:13:37.616Z,24.65
2018-09-27T12:14:47.654Z,24.78
2018-09-27T12:15:57.370Z,24.92
2018-09-27T12:17:06.565Z,24.81
2018-09-27T12:18:16.548Z,25.12
2018-09-27T12:19:26.692Z,25.15
2018-09-27T12:20:35.889Z,25.24
2018-09-27T12:21:45.870Z,24.93
2018-09-27T12:22:56.008Z,24.88
2018-09-27T12:24:06.038Z,24.88
2018-09-27T12:25:16.008Z,24.82
2018-09-27T12:26:25.997Z,24.88
2018-09-27T12:27:36.184Z,25.12
2018-09-27T12:28:46.334Z,25.31
2018-09-27T12:29:56.285Z,25.51
2018-09-27T12:31:06.554Z,25.49
2018-09-27T12:32:16.795Z,25.52
2018-09-27T12:33:26.772Z,25.39
2018-09-27T12:34:36.736Z,25.16
2018-09-27T12:35:46.447Z,24.86
2018-09-27T12:36:55.926Z,25
2018-09-27T12:38:05.934Z,25.11
2018-09-27T12:39:15.646Z,25.34
2018-09-27T12:40:25.636Z,25.43
2018-09-27T12:41:36.097Z,25.7
2018-09-27T12:42:46.715Z,25.91
2018-09-27T12:43:56.854Z,25.95
2018-09-27T12:45:06.839Z,25.91
2018-09-27T12:46:17.511Z,25.91
2018-09-27T12:47:27.767Z,25.7
2018-09-27T12:48:38.073Z,25.71
2018-09-27T12:49:48.571Z,25.44
2018-09-27T12:50:58.722Z,25.52
2018-09-27T12:52:09.489Z,25.68
2018-09-27T12:53:20.736Z,26.06
2018-09-27T12:54:30.444Z,25.86
2018-09-27T12:55:39.909Z,26.15
2018-09-27T12:56:49.876Z,26.24
2018-09-27T12:57:59.852Z,25.92
2018-09-27T12:59:09.808Z,25.77
2018-09-27T13:00:19.774Z,25.49
2018-09-27T13:01:29.578Z,25.33
2018-09-27T13:02:40.203Z,25.52
2018-09-27T13:03:50.417Z,25.41
2018-09-27T13:05:00.186Z,25.52
2018-09-27T13:06:10.194Z,25.48
2018-09-27T13:07:20.221Z,25.19
2018-09-27T13:08:30.307Z,24.84
2018-09-27T13:09:40.746Z,24.85
2018-09-27T13:10:51.100Z,24.85
2018-09-27T13:12:01.436Z,24.82
2018-09-27T13:13:11.719Z,24.97
2018-09-27T13:14:22.225Z,25.15
2018-09-27T13:15:32.287Z,25.03
2018-09-27T13:16:41.999Z,24.93
2018-09-27T13:17:51.602Z,24.88
2018-09-27T13:19:03.125Z,24.86
2018-09-27T13:20:12.469Z,24.92
2018-09-27T13:21:22.264Z,25.16
2018-09-27T13:22:32.332Z,25.21
2018-09-27T13:23:42.297Z,25.41
2018-09-27T13:24:52.388Z,25.21
2018-09-27T13:26:02.561Z,25.19
2018-09-27T13:27:12.551Z,24.99
2018-09-27T13:28:22.276Z,24.92
2018-09-27T13:29:31.789Z,24.85
2018-09-27T13:30:41.494Z,25.01
2018-09-27T13:31:51.296Z,25.18
2018-09-27T13:33:01.524Z,25.51
2018-09-27T13:34:11.907Z,25.44
2018-09-27T13:35:21.874Z,25.74
2018-09-27T13:36:31.845Z,25.86
2018-09-27T13:37:41.556Z,25.73
2018-09-27T13:38:51.320Z,25.92
2018-09-27T13:40:01.047Z,26.06
2018-09-27T13:41:11.404Z,26.22
2018-09-27T13:42:21.121Z,26.31
2018-09-27T13:43:30.835Z,26.36
2018-09-27T13:44:40.529Z,26.55
2018-09-27T13:45:50.519Z,26.61
2018-09-27T13:47:00.487Z,26.37
2018-09-27T13:48:10.456Z,26.27
2018-09-27T13:49:20.166Z,26.37
2018-09-27T13:50:30.136Z,26.15
2018-09-27T13:51:40.119Z,25.92
2018-09-27T13:52:50.097Z,25.96
2018-09-27T13:53:59.796Z,25.96
2018-09-27T13:55:09.903Z,25.95
2018-09-27T13:56:19.674Z,26.19
2018-09-27T13:57:29.868Z,26.19
2018-09-27T13:58:39.840Z,25.92
2018-09-27T13:59:49.817Z,25.95
2018-09-27T14:00:59.927Z,25.78
2018-09-27T14:02:09.893Z,25.63
2018-09-27T14:03:19.854Z,25.61
2018-09-27T14:04:29.821Z,25.7
2018-09-27T14:05:39.888Z,25.67
2018-09-27T14:06:49.625Z,25.66
2018-09-27T14:07:59.800Z,25.78
2018-09-27T14:09:09.516Z,25.74
2018-09-27T14:48:53.920Z,26.13
2018-09-27T14:50:04.038Z,25.86
2018-09-27T14:51:13.882Z,25.86
2018-09-27T14:52:23.883Z,25.77
2018-09-27T14:53:33.529Z,25.89
2018-09-27T14:54:43.380Z,25.89
2018-09-27T14:55:53.546Z,25.93
2018-09-27T14:57:03.525Z,25.89
2018-09-27T14:58:13.503Z,25.96
2018-09-27T14:59:23.496Z,25.95
2018-09-27T15:00:33.703Z,25.76
2018-09-27T15:01:43.836Z,25.71
2018-09-27T15:02:53.567Z,25.25
2018-09-27T15:04:03.543Z,25.14
2018-09-27T15:05:13.271Z,24.93
2018-09-27T15:06:22.739Z,24.81
2018-09-27T15:07:32.731Z,24.82
2018-09-27T15:08:42.439Z,24.74
2018-09-27T15:09:52.506Z,24.78
2018-09-27T15:11:02.724Z,24.79
2018-09-27T15:12:12.791Z,24.96
2018-09-27T15:13:22.747Z,24.86
2018-09-27T15:14:32.911Z,24.93
2018-09-27T15:15:42.793Z,24.88
2018-09-27T15:16:52.750Z,24.88
2018-09-27T15:18:03.080Z,24.99
2018-09-27T15:19:13.091Z,24.89
2018-09-27T15:20:22.815Z,24.84
2018-09-27T15:21:32.526Z,25.04
2018-09-27T15:22:42.726Z,25.07
2018-09-27T15:23:52.944Z,24.89
2018-09-27T15:25:02.935Z,24.96
2018-09-27T15:26:12.916Z,24.81
2018-09-27T15:27:22.615Z,24.81
2018-09-27T15:28:32.579Z,24.56
2018-09-27T15:29:42.290Z,24.47
2018-09-27T15:30:51.857Z,24.38
2018-09-27T15:32:01.563Z,24.34
2018-09-27T15:33:11.298Z,24.21
2018-09-27T15:34:21.300Z,24.31
2018-09-27T15:35:31.275Z,24.19
2018-09-27T15:36:41.591Z,24.06
2018-09-27T15:37:51.630Z,23.89
2018-09-27T15:39:01.604Z,23.86
2018-09-27T15:40:11.702Z,23.89
2018-09-27T15:41:21.673Z,23.85
2018-09-27T15:42:31.636Z,23.85